Impacts METAR Board INFO
IDs:

KMEM - Memphis Intl, TN, US

Updated at: 1741 UTC 25 Feb 2018
Potential Impact None Slight Moderate High
Time25/05Z 25/06Z 25/07Z 25/08Z 25/09Z 25/10Z 25/11Z 25/12Z 25/13Z 25/14Z 25/15Z 25/16Z 25/17Z
VIS7 7 10 10 10 10 10 10 10 10 10 10 10
CIG80 17 85 19 240 220 200 200 200 180 180 150 150
CoverOVCOVCOVCOVCOVCOVCOVCOVCBKNOVCBKNBKNBKN
FltCatVFRMVFRVFRMVFRVFRVFRVFRVFRVFRVFRVFRVFRVFR
WX-RA-RA----------------------
WDir220230230290330320310300330010800
WSpd5 11 6 8 12 9 6 5 4 0 5 4 0
WGst-- -- -- -- 21 -- -- -- -- -- -- -- --
Raw hourly METARs
KMEM 250454Z 22005KT 7SM -RA SCT017 BKN080 OVC120 13/12 A2991 RMK AO2 SLP125 P0002 T01280117 $
KMEM 250554Z 23011KT 7SM -RA BKN017 OVC100 13/12 A2995 RMK AO2 SLP141 P0001 60091 T01280117 10228 20128 402390128 53021 $
KMEM 250654Z 23006KT 10SM FEW014 BKN085 OVC100 13/12 A2997 RMK AO2 RAE20 SLP145 P0000 T01280122 $
KMEM 250803Z 29008KT 10SM BKN019 OVC120 13/12 A2997 RMK AO2 T01330122 $
KMEM 250854Z 33012G21KT 10SM SCT019 OVC240 11/08 A2999 RMK AO2 SLP154 60000 T01110083 51009 $
KMEM 250954Z 32009KT 10SM OVC220 09/05 A3002 RMK AO2 SLP162 T00940050 $
KMEM 251054Z 31006KT 10SM OVC200 08/04 A3005 RMK AO2 SLP175 T00830039 $
KMEM 251154Z 30005KT 10SM OVC200 08/04 A3010 RMK AO2 SLP190 60000 70094 T00780044 10133 20078 53034 $
KMEM 251254Z 33004KT 10SM BKN200 08/04 A3011 RMK AO2 SLP194 T00780044 $
KMEM 251354Z 00000KT 10SM OVC180 08/04 A3013 RMK AO2 SLP201 T00830044 $
KMEM 251454Z 01005KT 10SM BKN180 09/04 A3014 RMK AO2 SLP204 T00890044 51013 $
KMEM 251554Z 08004KT 10SM BKN150 09/04 A3014 RMK AO2 SLP206 T00940039 $
KMEM 251654Z 00000KT 10SM BKN150 11/03 A3013 RMK AO2 SLP202 T01110033 $